Time;durP1;ratioP1;P1;durP2;ratioP2;P2;SDS_P1;SDS_P2;PMS_P1;PMS_P2;Temp;Humidity;BMP_temperature;BMP_pressure;BME280_temperature;BME280_humidity;BME280_pressure;Samples;Min_cycle;Max_cycle;Signal;HPM_P1;HPM_P2
2023/01/15 00:01:01;;;;;;;10.38;1.35;;;6.60;99.90;;;;;;5063726;28;20052;-67
2023/01/15 00:03:28;;;;;;;3.78;1.02;;;6.60;99.90;;;;;;5066939;28;20040;-66
2023/01/15 00:05:53;;;;;;;;;;;6.60;99.90;;;;;;5072416;28;20048;-66
2023/01/15 00:08:19;;;;;;;11.77;1.00;;;6.60;99.90;;;;;;5065222;28;19916;-66
2023/01/15 00:10:45;;;;;;;10.73;1.67;;;6.70;99.90;;;;;;5064419;28;20487;-67
2023/01/15 00:13:10;;;;;;;6.43;0.90;;;6.70;99.90;;;;;;5066693;28;20096;-67
2023/01/15 00:15:36;;;;;;;5.23;0.83;;;6.70;99.90;;;;;;5056180;28;20032;-68
2023/01/15 00:18:03;;;;;;;7.73;1.50;;;6.70;99.90;;;;;;5058457;28;20040;-66
2023/01/15 00:20:28;;;;;;;;;;;6.70;99.90;;;;;;5054832;28;20098;-71
2023/01/15 00:22:54;;;;;;;5.60;1.00;;;6.70;99.90;;;;;;5064513;28;19920;-67
2023/01/15 00:28:05;;;;;;;6.38;1.33;;;6.70;99.90;;;;;;5057143;28;20229;-67
2023/01/15 00:30:30;;;;;;;7.97;1.07;;;6.70;99.90;;;;;;5056140;28;20063;-72
2023/01/15 00:32:58;;;;;;;8.70;1.57;;;6.70;99.90;;;;;;5048572;28;20037;-69
2023/01/15 00:35:24;;;;;;;10.48;1.17;;;6.70;99.90;;;;;;5061559;28;20036;-67
2023/01/15 00:37:50;;;;;;;6.28;2.10;;;6.70;99.90;;;;;;5061312;28;20169;-68
2023/01/15 00:40:19;;;;;;;3.03;1.20;;;6.70;99.90;;;;;;5059781;28;20051;-68
2023/01/15 00:42:45;;;;;;;7.15;0.77;;;6.70;99.90;;;;;;5060575;28;20072;-67
2023/01/15 00:45:11;;;;;;;6.32;1.15;;;6.70;99.90;;;;;;5059693;28;20075;-67
2023/01/15 00:47:41;;;;;;;6.07;1.20;;;6.70;99.90;;;;;;5065679;28;20185;-67
2023/01/15 00:50:09;;;;;;;5.60;1.23;;;6.70;99.90;;;;;;5064579;28;20049;-67
2023/01/15 00:52:35;;;;;;;4.88;1.25;;;6.70;99.90;;;;;;5063771;28;20041;-67
2023/01/15 00:55:01;;;;;;;9.13;1.00;;;6.70;99.90;;;;;;5056915;28;20478;-67
2023/01/15 00:57:26;;;;;;;3.97;0.77;;;6.70;99.90;;;;;;5062137;28;20036;-67
2023/01/15 00:59:52;;;;;;;3.17;0.60;;;6.70;99.90;;;;;;5057507;28;20108;-68
2023/01/15 01:02:18;;;;;;;4.93;0.87;;;6.80;99.90;;;;;;5058998;28;20116;-67
2023/01/15 01:04:43;;;;;;;7.97;1.10;;;6.80;99.90;;;;;;5053181;28;20040;-67
2023/01/15 01:07:09;;;;;;;5.03;0.80;;;6.70;99.90;;;;;;5053116;28;20047;-67
2023/01/15 01:09:35;;;;;;;7.57;1.50;;;6.70;99.90;;;;;;5065332;28;20081;-67
2023/01/15 01:12:01;;;;;;;4.73;1.00;;;6.70;99.90;;;;;;5067036;28;20297;-67
2023/01/15 01:14:27;;;;;;;3.67;1.40;;;6.70;99.90;;;;;;5066205;28;20029;-67
2023/01/15 01:16:52;;;;;;;5.05;0.95;;;6.70;99.90;;;;;;5057034;28;20113;-67
2023/01/15 01:19:20;;;;;;;5.30;1.20;;;6.70;99.90;;;;;;5062535;28;20601;-67
2023/01/15 01:21:47;;;;;;;3.47;0.70;;;6.70;99.90;;;;;;5055450;28;20052;-67
2023/01/15 01:24:19;;;;;;;6.07;1.10;;;6.70;99.90;;;;;;5057588;28;20040;-67
2023/01/15 01:26:45;;;;;;;11.50;1.30;;;6.70;99.90;;;;;;5064086;28;20137;-67
2023/01/15 01:29:12;;;;;;;7.72;0.70;;;6.60;99.90;;;;;;5058845;28;20143;-66
2023/01/15 01:31:38;;;;;;;4.38;1.05;;;6.60;99.90;;;;;;5062588;28;20056;-67
2023/01/15 01:34:04;;;;;;;6.57;0.97;;;6.60;99.90;;;;;;5060372;28;20033;-67
2023/01/15 01:36:32;;;;;;;13.07;1.60;;;6.60;99.90;;;;;;5064522;28;20173;-67
2023/01/15 01:38:59;;;;;;;14.15;1.50;;;6.60;99.90;;;;;;5063076;28;20040;-66
2023/01/15 01:41:26;;;;;;;3.95;0.85;;;6.60;99.90;;;;;;5066053;28;20421;-67
2023/01/15 01:43:57;;;;;;;11.80;1.67;;;6.60;99.90;;;;;;5058812;28;20089;-67
2023/01/15 01:46:24;;;;;;;3.80;1.08;;;6.60;99.90;;;;;;5063892;28;20043;-67
2023/01/15 01:48:57;;;;;;;9.20;0.90;;;6.50;99.90;;;;;;5063883;28;20041;-67
2023/01/15 01:51:28;;;;;;;7.88;1.52;;;6.50;99.90;;;;;;5061963;28;20060;-67
2023/01/15 01:53:56;;;;;;;8.40;1.02;;;6.60;99.90;;;;;;5053995;28;20041;-67
2023/01/15 01:56:22;;;;;;;6.70;1.40;;;6.50;99.90;;;;;;5060589;28;20040;-67
2023/01/15 01:58:52;;;;;;;4.57;1.15;;;6.60;99.90;;;;;;5061596;28;20097;-68
2023/01/15 02:01:19;;;;;;;6.07;1.00;;;6.60;99.90;;;;;;5059800;28;20051;-67
2023/01/15 02:03:45;;;;;;;6.55;0.88;;;6.50;99.90;;;;;;5061912;28;20116;-67
2023/01/15 02:06:12;;;;;;;3.90;1.00;;;6.50;99.90;;;;;;5058591;28;20124;-67
2023/01/15 02:08:38;;;;;;;12.02;0.93;;;6.50;99.90;;;;;;5064748;28;20671;-67
2023/01/15 02:11:06;;;;;;;4.38;0.80;;;6.50;99.90;;;;;;5055151;28;20139;-67
2023/01/15 02:13:42;;;;;;;9.88;1.80;;;6.50;99.90;;;;;;5058414;28;20218;-67
2023/01/15 02:16:22;;;;;;;9.40;1.63;;;6.50;99.90;;;;;;5063765;28;20510;-66
2023/01/15 02:19:14;;;;;;;14.07;1.90;;;6.50;99.90;;;;;;5062993;28;20280;-67
2023/01/15 02:22:01;;;;;;;6.50;1.17;;;6.50;99.90;;;;;;5064900;28;20127;-67
2023/01/15 02:24:27;;;;;;;8.13;1.15;;;6.50;99.90;;;;;;5053592;28;20128;-67
2023/01/15 02:27:15;;;;;;;4.13;1.80;;;6.50;99.90;;;;;;5063723;28;20177;-66
2023/01/15 02:30:07;;;;;;;10.15;1.38;;;6.50;99.90;;;;;;5063443;28;20041;-66
2023/01/15 02:32:33;;;;;;;8.02;1.70;;;6.50;99.90;;;;;;5044016;28;20294;-67
2023/01/15 02:35:04;;;;;;;3.50;0.87;;;6.50;99.90;;;;;;5067661;28;20611;-67
2023/01/15 02:37:34;;;;;;;13.43;1.40;;;6.50;99.90;;;;;;5049914;28;20041;-67
2023/01/15 02:40:02;;;;;;;5.63;1.35;;;6.50;99.90;;;;;;5064861;28;20524;-66
2023/01/15 02:42:30;;;;;;;8.27;1.73;;;6.60;99.90;;;;;;5060710;28;20051;-67
2023/01/15 02:44:59;;;;;;;3.78;1.50;;;6.50;99.90;;;;;;5067510;28;20037;-67
2023/01/15 02:47:32;;;;;;;9.40;1.58;;;6.50;99.90;;;;;;5061795;28;20036;-67
2023/01/15 02:50:03;;;;;;;7.93;1.35;;;6.50;99.90;;;;;;5056445;28;20036;-67
2023/01/15 02:52:34;;;;;;;10.43;0.93;;;6.60;99.90;;;;;;5067249;28;20075;-66
2023/01/15 02:55:12;;;;;;;5.28;1.73;;;6.50;99.90;;;;;;5060802;28;20059;-67
2023/01/15 02:57:42;;;;;;;5.53;1.33;;;6.50;99.90;;;;;;5066585;28;20044;-69
2023/01/15 03:00:12;;;;;;;7.97;1.30;;;6.50;99.90;;;;;;5066242;28;20581;-67
2023/01/15 03:03:00;;;;;;;4.60;1.20;;;6.50;99.90;;;;;;5044333;28;20045;-67
2023/01/15 03:05:27;;;;;;;;;;;6.50;99.90;;;;;;5068211;28;20185;-67
2023/01/15 03:07:59;;;;;;;10.90;1.93;;;6.50;99.90;;;;;;5066508;28;20345;-67
2023/01/15 03:10:36;;;;;;;8.32;1.15;;;6.50;99.90;;;;;;5068075;28;20456;-67
2023/01/15 03:13:04;;;;;;;6.20;0.75;;;6.50;99.90;;;;;;5063357;28;20037;-68
2023/01/15 03:18:55;;;;;;;5.75;2.08;;;6.40;99.90;;;;;;5062188;28;20049;-67
2023/01/15 03:21:45;;;;;;;8.20;1.42;;;6.40;99.90;;;;;;5062071;28;20066;-67
2023/01/15 03:24:13;;;;;;;10.05;1.30;;;6.40;99.90;;;;;;5068349;28;20072;-67
2023/01/15 03:26:39;;;;;;;11.20;2.75;;;6.40;99.90;;;;;;5061772;28;20056;-67
2023/01/15 03:29:07;;;;;;;8.73;1.23;;;6.40;99.90;;;;;;5061574;28;20545;-67
2023/01/15 03:31:34;;;;;;;3.40;1.00;;;6.40;99.90;;;;;;5058087;28;20298;-67
2023/01/15 03:34:00;;;;;;;5.85;0.95;;;6.40;99.90;;;;;;5072707;28;20130;-67
2023/01/15 03:36:26;;;;;;;7.45;0.85;;;6.30;99.90;;;;;;5060422;28;20275;-69
2023/01/15 03:38:52;;;;;;;8.90;1.90;;;6.40;99.90;;;;;;5059758;28;20105;-71
2023/01/15 03:41:34;;;;;;;9.60;1.92;;;6.40;99.90;;;;;;5054479;28;20072;-72
2023/01/15 03:44:12;;;;;;;12.75;2.78;;;6.40;99.90;;;;;;5055049;28;20311;-71
2023/01/15 03:46:51;;;;;;;11.27;2.45;;;6.40;99.90;;;;;;5052639;28;20080;-71
2023/01/15 03:49:17;;;;;;;7.38;2.03;;;6.40;99.90;;;;;;5055791;28;20075;-72
2023/01/15 03:51:51;;;;;;;6.03;1.17;;;6.40;99.90;;;;;;5060217;28;20052;-72
2023/01/15 03:54:37;;;;;;;4.47;1.00;;;6.40;99.90;;;;;;5061184;28;20052;-71
2023/01/15 03:57:14;;;;;;;9.05;1.10;;;6.30;99.90;;;;;;5061798;28;20097;-73
2023/01/15 03:59:48;;;;;;;5.55;1.00;;;6.30;99.90;;;;;;5056406;28;20100;-72
2023/01/15 04:02:17;;;;;;;6.60;1.25;;;6.30;99.90;;;;;;5054407;28;20048;-71
2023/01/15 04:04:45;;;;;;;12.20;1.10;;;6.30;99.90;;;;;;5059391;28;20045;-72
2023/01/15 04:07:11;;;;;;;11.98;2.55;;;6.30;99.90;;;;;;5054370;28;20485;-71
2023/01/15 04:09:40;;;;;;;8.98;1.33;;;6.20;99.90;;;;;;5043101;28;20190;-72
2023/01/15 04:12:06;;;;;;;11.50;1.67;;;6.30;99.90;;;;;;5059966;28;20044;-72
2023/01/15 04:14:32;;;;;;;4.65;1.38;;;6.30;99.90;;;;;;5056160;28;20033;-71
2023/01/15 04:16:58;;;;;;;5.38;1.00;;;6.30;99.90;;;;;;5063717;28;20394;-72
2023/01/15 04:19:24;;;;;;;9.37;1.60;;;6.20;99.90;;;;;;5060676;28;20040;-72
2023/01/15 04:21:50;;;;;;;12.27;1.20;;;6.20;99.90;;;;;;5062885;28;20040;-72
2023/01/15 04:24:15;;;;;;;4.97;0.90;;;6.20;99.90;;;;;;5057752;28;20036;-72
2023/01/15 04:26:41;;;;;;;9.13;1.47;;;6.20;99.90;;;;;;5053651;28;22067;-71
2023/01/15 04:29:06;;;;;;;7.60;1.73;;;6.20;99.90;;;;;;5059066;28;20032;-71
2023/01/15 04:31:34;;;;;;;10.20;1.37;;;6.20;99.90;;;;;;5055554;28;20126;-71
2023/01/15 04:34:00;;;;;;;6.70;1.13;;;6.20;99.90;;;;;;5059510;28;20047;-71
2023/01/15 04:36:26;;;;;;;9.93;1.67;;;6.20;99.90;;;;;;5057204;28;20379;-71
2023/01/15 04:38:53;;;;;;;11.20;2.07;;;6.20;99.90;;;;;;5052938;28;20044;-71
2023/01/15 04:44:06;;;;;;;6.82;1.13;;;6.20;99.90;;;;;;5057325;28;20040;-71
2023/01/15 04:46:41;;;;;;;6.88;1.27;;;6.20;99.90;;;;;;5060737;28;20037;-72
2023/01/15 04:49:18;;;;;;;5.68;0.80;;;6.20;99.90;;;;;;5057087;28;20037;-72
2023/01/15 04:51:44;;;;;;;8.38;0.80;;;6.20;99.90;;;;;;5062133;28;20498;-71
2023/01/15 04:54:11;;;;;;;;;;;6.20;99.90;;;;;;5054635;28;20133;-71
2023/01/15 04:56:41;;;;;;;8.90;1.30;;;6.20;99.90;;;;;;5059599;28;21332;-71
2023/01/15 04:59:07;;;;;;;4.80;1.58;;;6.10;99.90;;;;;;5058155;28;20056;-71
2023/01/15 05:01:33;;;;;;;6.35;0.65;;;6.10;99.90;;;;;;5061163;28;20036;-72
2023/01/15 05:03:59;;;;;;;8.63;1.00;;;6.10;99.90;;;;;;5053759;28;20536;-71
2023/01/15 05:06:25;;;;;;;3.20;0.85;;;6.20;99.90;;;;;;5056776;28;21904;-71
2023/01/15 05:08:52;;;;;;;6.88;1.25;;;6.10;99.90;;;;;;5058038;28;20067;-72
2023/01/15 05:11:17;;;;;;;11.27;1.80;;;6.10;99.90;;;;;;5054367;28;20040;-71
2023/01/15 05:13:43;;;;;;;7.40;1.40;;;6.10;99.90;;;;;;5055526;28;20487;-71
2023/01/15 05:16:14;;;;;;;10.27;1.20;;;6.10;99.90;;;;;;5057616;28;20047;-71
2023/01/15 05:18:45;;;;;;;6.72;1.92;;;6.10;99.90;;;;;;5055713;28;20405;-72
2023/01/15 05:21:21;;;;;;;10.60;1.38;;;6.00;99.90;;;;;;5055426;28;20106;-72
2023/01/15 05:23:48;;;;;;;13.65;1.25;;;6.00;99.90;;;;;;5059171;28;20162;-72
2023/01/15 05:26:14;;;;;;;5.85;1.23;;;5.90;99.90;;;;;;5063723;28;20041;-72
2023/01/15 05:28:40;;;;;;;3.13;0.93;;;5.90;99.90;;;;;;5056299;28;20103;-71
2023/01/15 05:31:11;;;;;;;3.87;1.03;;;5.90;99.90;;;;;;5060100;28;20053;-71
2023/01/15 05:33:37;;;;;;;5.78;0.95;;;5.90;99.90;;;;;;5064731;28;20152;-72
2023/01/15 05:36:05;;;;;;;8.10;1.00;;;5.80;99.90;;;;;;5057863;28;20040;-72
2023/01/15 05:38:31;;;;;;;5.75;1.35;;;5.90;99.90;;;;;;5056208;28;20525;-71
2023/01/15 05:40:57;;;;;;;8.88;0.73;;;5.80;99.90;;;;;;5061272;28;20370;-71
2023/01/15 05:43:23;;;;;;;8.20;1.60;;;5.80;99.90;;;;;;5061935;28;20048;-72
2023/01/15 05:45:48;;;;;;;4.93;1.10;;;5.80;99.90;;;;;;5051013;28;20130;-71
2023/01/15 05:48:14;;;;;;;5.17;1.07;;;5.80;99.90;;;;;;5064445;28;20106;-72
2023/01/15 05:50:39;;;;;;;6.37;1.37;;;5.70;99.90;;;;;;5063908;28;20086;-72
2023/01/15 05:53:06;;;;;;;5.83;1.20;;;5.70;99.90;;;;;;5055450;28;20041;-71
2023/01/15 05:55:32;;;;;;;9.95;1.23;;;5.70;99.90;;;;;;5052134;28;20399;-72
2023/01/15 05:57:57;;;;;;;5.73;0.70;;;5.70;99.90;;;;;;5049062;22;20148;-72
2023/01/15 06:00:24;;;;;;;8.33;1.37;;;5.70;99.90;;;;;;5031215;28;20053;-70
2023/01/15 06:02:50;;;;;;;4.72;0.93;;;5.70;99.90;;;;;;5037620;28;20085;-70
2023/01/15 06:05:19;;;;;;;4.47;0.97;;;5.70;99.90;;;;;;5038768;28;20128;-71
2023/01/15 06:07:47;;;;;;;7.30;1.33;;;5.70;99.90;;;;;;5043644;28;20037;-71
2023/01/15 06:10:17;;;;;;;5.90;0.95;;;5.70;99.90;;;;;;5041117;28;20052;-71
2023/01/15 06:12:43;;;;;;;4.15;0.95;;;5.70;99.90;;;;;;5043028;28;20037;-70
2023/01/15 06:15:10;;;;;;;4.33;1.27;;;5.70;99.90;;;;;;5039672;28;20110;-70
2023/01/15 06:17:35;;;;;;;11.52;1.25;;;5.70;99.90;;;;;;5040529;28;20429;-70
2023/01/15 06:20:02;;;;;;;3.63;1.00;;;5.70;99.90;;;;;;5030461;28;20033;-70
2023/01/15 06:22:28;;;;;;;5.15;1.33;;;5.70;99.90;;;;;;5035678;28;20068;-70
2023/01/15 06:24:54;;;;;;;;;;;5.70;99.90;;;;;;5035837;28;20049;-71
2023/01/15 06:27:19;;;;;;;5.15;1.17;;;5.70;99.90;;;;;;5033786;28;19925;-70
2023/01/15 06:29:45;;;;;;;8.90;0.90;;;5.70;99.90;;;;;;5040291;28;20052;-70
2023/01/15 06:32:10;;;;;;;5.20;1.20;;;5.70;99.90;;;;;;5045429;28;20127;-70
2023/01/15 06:34:36;;;;;;;8.43;1.67;;;5.70;99.90;;;;;;5044759;28;20276;-70
2023/01/15 06:37:02;;;;;;;3.77;0.73;;;5.70;99.90;;;;;;5041424;28;20040;-70
2023/01/15 06:39:27;;;;;;;7.50;1.10;;;5.70;99.90;;;;;;5037851;28;20044;-70
2023/01/15 06:47:22;;;;;;;5.93;0.95;;;5.60;99.90;;;;;;5032781;28;20053;-71
2023/01/15 06:49:49;;;;;;;12.73;0.90;;;5.60;99.90;;;;;;5044472;28;20060;-71
2023/01/15 06:52:15;;;;;;;5.03;0.88;;;5.60;99.90;;;;;;5038150;28;20196;-71
2023/01/15 06:54:40;;;;;;;3.17;0.60;;;5.60;99.90;;;;;;5039535;28;20124;-70
2023/01/15 06:57:06;;;;;;;3.00;0.70;;;5.60;99.90;;;;;;5041719;28;20044;-70
2023/01/15 06:59:32;;;;;;;2.20;1.10;;;5.50;99.90;;;;;;5039639;28;20029;-70
2023/01/15 07:01:58;;;;;;;4.90;1.00;;;5.60;99.90;;;;;;5040973;28;20604;-70
2023/01/15 07:04:24;;;;;;;12.67;1.67;;;5.60;99.90;;;;;;5040502;28;20076;-70
2023/01/15 07:06:49;;;;;;;2.55;0.60;;;5.60;99.90;;;;;;5023817;28;20049;-70
2023/01/15 07:09:15;;;;;;;6.00;1.03;;;5.60;99.90;;;;;;5042903;28;20072;-71
2023/01/15 07:11:50;;;;;;;4.20;0.93;;;5.60;99.90;;;;;;5034000;28;20041;-70
2023/01/15 07:14:23;;;;;;;7.35;1.17;;;5.70;99.90;;;;;;5033743;28;20045;-70
2023/01/15 07:16:50;;;;;;;4.88;0.85;;;5.60;99.90;;;;;;5026667;28;20037;-70
2023/01/15 07:19:17;;;;;;;7.15;1.13;;;5.70;99.90;;;;;;5036449;28;20041;-70
2023/01/15 07:21:43;;;;;;;6.45;1.23;;;5.60;99.90;;;;;;5030454;28;20092;-70
2023/01/15 07:24:09;;;;;;;5.30;0.80;;;5.60;99.90;;;;;;5032617;28;20073;-70
2023/01/15 07:26:36;;;;;;;3.45;0.88;;;5.60;99.90;;;;;;5038998;28;20045;-70
2023/01/15 07:29:01;;;;;;;4.75;0.88;;;5.70;99.90;;;;;;5037045;28;20520;-71
2023/01/15 07:31:27;;;;;;;6.40;1.30;;;5.70;99.90;;;;;;5035059;28;20038;-70
2023/01/15 07:33:55;;;;;;;4.00;0.87;;;5.80;99.90;;;;;;5037306;28;20434;-70
2023/01/15 07:36:21;;;;;;;5.47;0.60;;;5.70;99.90;;;;;;5041894;28;20045;-70
2023/01/15 07:38:47;;;;;;;6.70;1.30;;;5.70;99.90;;;;;;5033216;28;20090;-71
2023/01/15 07:52:13;;;;;;;6.68;0.90;;;5.70;99.90;;;;;;5035901;28;20048;-70
2023/01/15 07:54:38;;;;;;;8.60;0.98;;;5.70;99.90;;;;;;5035967;28;20402;-70
2023/01/15 07:57:05;;;;;;;5.57;1.20;;;5.60;99.90;;;;;;5035726;28;20036;-70
2023/01/15 07:59:31;;;;;;;3.65;1.00;;;5.60;99.90;;;;;;5027411;28;20134;-70
2023/01/15 08:01:56;;;;;;;3.80;1.20;;;5.70;99.90;;;;;;5029270;28;20531;-70
2023/01/15 08:04:22;;;;;;;5.83;1.10;;;5.70;99.90;;;;;;5016507;28;20045;-71
2023/01/15 08:06:47;;;;;;;6.53;0.87;;;5.70;99.90;;;;;;5040362;28;20192;-69
2023/01/15 08:09:13;;;;;;;3.40;0.83;;;5.70;99.90;;;;;;5040294;28;20439;-70
2023/01/15 08:17:07;;;;;;;10.07;1.15;;;5.70;99.90;;;;;;5036044;28;20037;-70
2023/01/15 08:19:33;;;;;;;4.47;0.93;;;5.70;99.90;;;;;;5039965;28;20217;-70
2023/01/15 08:22:01;;;;;;;9.27;1.13;;;5.70;99.90;;;;;;5044427;28;20482;-70
2023/01/15 08:24:28;;;;;;;6.35;0.85;;;5.70;99.90;;;;;;5031589;28;20042;-70
2023/01/15 08:26:54;;;;;;;7.47;1.55;;;5.70;99.90;;;;;;5035614;28;20045;-70
2023/01/15 08:29:20;;;;;;;5.10;0.70;;;5.60;99.90;;;;;;5035002;28;20128;-70
2023/01/15 08:31:46;;;;;;;5.78;1.05;;;5.60;99.90;;;;;;5039838;28;20100;-70
2023/01/15 08:34:12;;;;;;;9.07;1.27;;;5.70;99.90;;;;;;5035858;28;20060;-70
2023/01/15 08:36:38;;;;;;;4.27;1.40;;;5.70;99.90;;;;;;5037413;28;20076;-70
2023/01/15 08:39:04;;;;;;;15.13;4.60;;;5.70;99.90;;;;;;5044966;28;20040;-69
2023/01/15 08:41:30;;;;;;;7.18;1.92;;;5.60;99.90;;;;;;5031703;28;20424;-69
2023/01/15 08:43:56;;;;;;;12.40;3.47;;;5.60;99.90;;;;;;5038007;28;20355;-69
2023/01/15 08:46:21;;;;;;;8.60;3.90;;;5.50;99.90;;;;;;5040705;28;20036;-70
2023/01/15 08:48:48;;;;;;;13.53;2.47;;;5.40;99.90;;;;;;5032841;28;20334;-70
2023/01/15 08:51:14;;;;;;;12.38;1.55;;;5.30;99.90;;;;;;5033061;28;20049;-69
2023/01/15 08:53:40;;;;;;;5.50;1.73;;;5.20;99.90;;;;;;5033693;28;20139;-70
2023/01/15 08:56:14;;;;;;;12.35;1.10;;;5.20;99.90;;;;;;5037700;28;20040;-70
2023/01/15 08:58:40;;;;;;;7.13;1.20;;;5.20;99.90;;;;;;5028279;28;20052;-70
2023/01/15 09:01:11;;;;;;;7.80;1.53;;;5.20;99.90;;;;;;5039067;28;20045;-70
2023/01/15 09:03:37;;;;;;;8.93;4.07;;;5.20;99.90;;;;;;5014308;28;20116;-69
2023/01/15 09:06:04;;;;;;;13.05;5.15;;;5.30;99.90;;;;;;5039277;28;20133;-69
2023/01/15 09:08:30;;;;;;;16.40;4.63;;;5.40;99.90;;;;;;5033000;28;20072;-69
2023/01/15 09:11:01;;;;;;;23.15;7.63;;;5.40;99.90;;;;;;5038050;28;20075;-69
2023/01/15 09:13:28;;;;;;;7.65;4.57;;;5.50;99.90;;;;;;5050146;28;20527;-69
2023/01/15 09:15:57;;;;;;;9.65;2.08;;;5.50;99.90;;;;;;5028551;28;20116;-69
2023/01/15 09:18:26;;;;;;;6.43;1.10;;;5.50;99.90;;;;;;5036977;28;20125;-69
2023/01/15 09:20:51;;;;;;;9.03;1.20;;;5.60;99.90;;;;;;5041040;28;20124;-69
2023/01/15 09:23:20;;;;;;;12.33;3.10;;;5.70;99.90;;;;;;5035978;28;20037;-70
2023/01/15 09:25:53;;;;;;;3.70;1.33;;;5.80;99.90;;;;;;5020404;28;20048;-70
2023/01/15 09:28:19;;;;;;;5.22;1.50;;;5.90;99.90;;;;;;5032715;28;20499;-69
2023/01/15 09:30:45;;;;;;;6.13;1.10;;;5.90;99.90;;;;;;5035709;28;20285;-70
2023/01/15 09:33:10;;;;;;;6.70;1.50;;;5.90;99.90;;;;;;5040619;28;20459;-70
2023/01/15 09:35:36;;;;;;;6.50;1.30;;;6.10;99.90;;;;;;5037625;28;20521;-69
2023/01/15 09:38:02;;;;;;;6.47;1.00;;;6.10;99.90;;;;;;5031114;28;20458;-69
2023/01/15 09:40:47;;;;;;;6.53;1.40;;;6.10;99.90;;;;;;5039992;28;20040;-72
2023/01/15 09:43:41;;;;;;;8.20;1.27;;;6.20;99.90;;;;;;5036940;28;20045;-70
2023/01/15 09:46:16;;;;;;;7.65;0.90;;;6.20;99.90;;;;;;5032424;28;20045;-69
2023/01/15 09:49:06;;;;;;;10.40;1.30;;;6.40;99.90;;;;;;5027554;28;20116;-69
2023/01/15 09:51:37;;;;;;;6.72;1.25;;;6.40;99.90;;;;;;5037589;28;20033;-69
2023/01/15 09:54:05;;;;;;;10.45;1.25;;;6.50;99.90;;;;;;5039384;28;20110;-68
2023/01/15 09:56:35;;;;;;;12.23;2.10;;;6.50;99.90;;;;;;5043430;28;20048;-69
2023/01/15 09:59:14;;;;;;;8.07;1.58;;;6.50;99.90;;;;;;5060446;28;20127;-69
2023/01/15 10:01:42;;;;;;;13.02;1.40;;;6.60;99.90;;;;;;5039657;28;20053;-69
2023/01/15 10:04:33;;;;;;;6.95;0.93;;;6.60;99.90;;;;;;5040103;28;20056;-69
2023/01/15 10:07:17;;;;;;;7.75;1.40;;;6.60;99.90;;;;;;5041363;28;20044;-69
2023/01/15 10:09:45;;;;;;;4.00;1.23;;;6.70;99.90;;;;;;5038661;28;20049;-69
2023/01/15 10:12:34;;;;;;;2.90;1.33;;;6.80;99.90;;;;;;5040437;28;20049;-69
2023/01/15 10:15:12;;;;;;;6.03;1.20;;;6.80;99.90;;;;;;5040033;28;20041;-69
2023/01/15 10:17:47;;;;;;;4.07;1.30;;;7.00;99.90;;;;;;5037042;28;20037;-69
2023/01/15 10:20:34;;;;;;;12.20;1.70;;;7.00;99.90;;;;;;5040601;28;20398;-70
2023/01/15 10:23:39;;;;;;;4.88;0.98;;;7.10;99.90;;;;;;5039757;28;20107;-69
2023/01/15 10:26:09;;;;;;;6.07;1.67;;;7.20;99.90;;;;;;5036979;28;20442;-69
2023/01/15 10:28:53;;;;;;;10.27;1.23;;;7.20;99.90;;;;;;5033987;28;20037;-69
2023/01/15 10:31:23;;;;;;;7.93;1.17;;;7.10;99.90;;;;;;5033019;28;20045;-70
2023/01/15 10:34:34;;;;;;;5.57;1.33;;;7.10;99.90;;;;;;5040800;28;20045;-69
2023/01/15 10:37:40;;;;;;;6.50;1.75;;;7.00;99.90;;;;;;5034102;28;20033;-70
2023/01/15 10:40:43;;;;;;;17.60;1.20;;;7.10;99.90;;;;;;4987828;28;20412;-70
2023/01/15 10:43:23;;;;;;;8.25;1.25;;;7.10;99.90;;;;;;5027098;28;20041;-69
2023/01/15 10:46:02;;;;;;;4.57;1.42;;;7.10;99.90;;;;;;5039929;28;20076;-69
2023/01/15 10:48:52;;;;;;;5.93;0.90;;;7.10;99.90;;;;;;5038550;28;20624;-70
2023/01/15 10:51:36;;;;;;;10.57;1.42;;;7.10;99.90;;;;;;5036942;28;20037;-70
2023/01/15 10:54:10;;;;;;;7.55;0.88;;;7.10;99.90;;;;;;5032251;28;20044;-69
2023/01/15 10:57:10;;;;;;;6.28;1.15;;;7.10;99.90;;;;;;5037151;28;20041;-69
2023/01/15 10:59:46;;;;;;;8.70;1.40;;;7.20;99.90;;;;;;5038777;28;20036;-69
2023/01/15 11:02:23;;;;;;;9.80;2.22;;;7.30;99.90;;;;;;5031374;28;20072;-70
2023/01/15 11:04:49;;;;;;;;;;;7.40;99.90;;;;;;5034431;28;20106;-69
2023/01/15 11:07:15;;;;;;;3.95;1.02;;;7.50;99.90;;;;;;5039931;28;20383;-69
2023/01/15 11:09:41;;;;;;;;;;;7.70;99.90;;;;;;5036090;28;20402;-70
2023/01/15 11:20:46;;;;;;;6.13;1.13;;;7.60;99.90;;;;;;5028209;28;20044;-69
2023/01/15 11:23:14;;;;;;;6.18;1.25;;;7.50;99.90;;;;;;5015705;28;20459;-69
2023/01/15 11:25:53;;;;;;;8.65;1.38;;;7.50;99.90;;;;;;5031408;28;20125;-69
2023/01/15 11:28:40;;;;;;;8.55;1.35;;;7.50;99.90;;;;;;5036079;28;20076;-70
2023/01/15 11:31:07;;;;;;;11.48;1.27;;;7.50;99.90;;;;;;5033909;28;20053;-69
2023/01/15 11:33:33;;;;;;;10.52;1.98;;;7.40;99.90;;;;;;5032880;28;20447;-70
2023/01/15 11:36:01;;;;;;;4.40;1.17;;;7.40;99.90;;;;;;5035605;28;20592;-69
2023/01/15 11:38:48;;;;;;;7.40;1.45;;;7.40;99.90;;;;;;5032228;28;20425;-69
2023/01/15 11:41:22;;;;;;;7.45;0.98;;;7.40;99.90;;;;;;5030733;28;20416;-69
2023/01/15 11:52:21;;;;;;;8.48;1.92;;;7.40;99.90;;;;;;5029550;28;20126;-69
2023/01/15 11:54:51;;;;;;;12.55;1.88;;;7.40;99.90;;;;;;5037300;28;20529;-69
2023/01/15 12:00:04;;;;;;;6.82;1.52;;;7.40;99.90;;;;;;5030426;28;20076;-70
2023/01/15 12:02:46;;;;;;;7.93;1.25;;;7.40;99.90;;;;;;5032610;28;20080;-69
2023/01/15 12:05:30;;;;;;;9.25;1.85;;;7.40;99.90;;;;;;5035398;28;20080;-70
2023/01/15 12:08:00;;;;;;;7.85;1.27;;;7.40;99.90;;;;;;5036013;28;20122;-70
2023/01/15 12:13:28;;;;;;;6.57;1.33;;;7.40;99.90;;;;;;5036642;28;20044;-70
2023/01/15 12:16:03;;;;;;;5.13;1.20;;;7.40;99.90;;;;;;5034693;28;20029;-70
2023/01/15 12:18:56;;;;;;;12.55;1.88;;;7.40;99.90;;;;;;5033594;28;20266;-69
2023/01/15 12:22:00;;;;;;;3.30;0.82;;;7.30;99.90;;;;;;5034281;28;20147;-69
2023/01/15 12:24:44;;;;;;;5.03;1.10;;;7.30;99.90;;;;;;5034617;28;20546;-69
2023/01/15 12:27:48;;;;;;;7.53;1.48;;;7.00;99.90;;;;;;5034661;28;20044;-69
2023/01/15 12:30:23;;;;;;;7.72;1.15;;;6.60;99.90;;;;;;5027188;28;20152;-69
2023/01/15 12:33:24;;;;;;;11.70;0.77;;;6.30;99.90;;;;;;5033424;28;20076;-69
2023/01/15 12:36:18;;;;;;;7.05;1.75;;;6.10;99.90;;;;;;5034909;28;20057;-69
2023/01/15 12:39:01;;;;;;;4.13;0.70;;;5.90;99.90;;;;;;5028382;28;20053;-70
2023/01/15 12:48:10;;;;;;;6.57;1.80;;;5.70;99.90;;;;;;5024305;28;20049;-68
2023/01/15 12:50:53;;;;;;;1.92;0.88;;;5.70;99.90;;;;;;5035357;28;20055;-70
2023/01/15 12:53:24;;;;;;;4.07;1.20;;;5.70;99.90;;;;;;5029279;28;20422;-70
2023/01/15 12:55:57;;;;;;;13.27;2.13;;;5.70;99.90;;;;;;5034045;28;20529;-69
2023/01/15 12:58:25;;;;;;;5.38;1.85;;;5.60;99.90;;;;;;5032906;28;20037;-69
2023/01/15 13:01:00;;;;;;;3.28;1.50;;;5.70;99.90;;;;;;5029784;28;20478;-69
2023/01/15 13:03:57;;;;;;;4.18;0.80;;;5.70;99.90;;;;;;5031529;28;20073;-71
2023/01/15 13:06:27;;;;;;;7.15;1.50;;;5.70;99.90;;;;;;5031644;28;20075;-69
2023/01/15 13:09:07;;;;;;;3.83;1.10;;;5.70;99.90;;;;;;5022438;28;20040;-69
2023/01/15 13:11:33;;;;;;;3.88;0.75;;;5.70;99.90;;;;;;5026253;28;20045;-69
2023/01/15 13:13:59;;;;;;;5.13;0.60;;;5.70;99.90;;;;;;5034105;28;20509;-69
2023/01/15 13:16:29;;;;;;;4.03;0.80;;;5.70;99.90;;;;;;5033073;28;20143;-69
2023/01/15 13:19:16;;;;;;;2.95;0.73;;;5.80;99.90;;;;;;5030212;28;20082;-69
2023/01/15 13:21:56;;;;;;;6.38;0.90;;;5.80;99.90;;;;;;5028514;28;20805;-69
2023/01/15 13:24:52;;;;;;;3.47;0.80;;;5.80;99.90;;;;;;5047282;28;20101;-69
2023/01/15 13:27:55;;;;;;;8.45;0.98;;;5.80;99.90;;;;;;5019632;28;20060;-71
2023/01/15 13:30:39;;;;;;;6.88;1.40;;;5.80;99.90;;;;;;5029374;28;20479;-69
2023/01/15 13:33:16;;;;;;;8.55;1.27;;;5.80;99.90;;;;;;5034149;28;20123;-69
2023/01/15 13:35:53;;;;;;;;;;;5.80;99.90;;;;;;5044956;28;20123;-73
2023/01/15 13:38:24;;;;;;;10.88;2.97;;;5.80;99.90;;;;;;5031878;28;19947;-69
2023/01/15 13:40:52;;;;;;;9.77;1.30;;;5.90;99.90;;;;;;5031958;28;20085;-70
2023/01/15 13:43:43;;;;;;;7.85;1.40;;;5.90;99.90;;;;;;5031218;28;20423;-69
2023/01/15 13:46:12;;;;;;;3.00;0.85;;;5.90;99.90;;;;;;5017453;28;20056;-71
2023/01/15 13:48:45;;;;;;;4.43;0.80;;;5.90;99.90;;;;;;5032928;28;20044;-69
2023/01/15 13:51:37;;;;;;;3.97;0.95;;;5.90;99.90;;;;;;5030218;28;20048;-70
2023/01/15 13:54:12;;;;;;;7.28;1.42;;;5.90;99.90;;;;;;5034724;28;20072;-70
2023/01/15 13:56:38;;;;;;;7.07;1.35;;;6.00;99.90;;;;;;5018123;28;20444;-70
2023/01/15 13:59:05;;;;;;;;;;;6.00;99.90;;;;;;5040222;28;20033;-70
2023/01/15 14:01:35;;;;;;;22.63;4.70;;;6.10;99.90;;;;;;5022170;28;19975;-70
2023/01/15 14:04:01;;;;;;;10.73;2.30;;;6.00;99.90;;;;;;5024694;28;20044;-70
2023/01/15 14:06:48;;;;;;;5.43;1.70;;;6.10;99.90;;;;;;5031452;28;20489;-70
2023/01/15 14:09:25;;;;;;;6.10;2.23;;;6.10;99.90;;;;;;5013466;28;20037;-71
2023/01/15 14:11:54;;;;;;;9.70;3.28;;;6.20;99.90;;;;;;5028384;28;20045;-70
2023/01/15 14:14:32;;;;;;;10.40;2.88;;;6.20;99.90;;;;;;5038886;28;20059;-70
2023/01/15 14:17:11;;;;;;;20.75;6.78;;;6.20;99.90;;;;;;5031725;28;20119;-70
2023/01/15 14:19:39;;;;;;;7.18;1.55;;;6.30;99.90;;;;;;5037273;28;20044;-70